Time;durP1;ratioP1;P1;durP2;ratioP2;P2;SDS_P1;SDS_P2;PMS_P1;PMS_P2;Temp;Humidity;BMP_temperature;BMP_pressure;BME280_temperature;BME280_humidity;BME280_pressure;Samples;Min_cycle;Max_cycle;Signal;HPM_P1;HPM_P2
2022/08/22 00:00:11;;;;;;;;;;;;;;;19.77;45.66;98739.97;2619238;54;19947;-70
2022/08/22 00:02:47;;;;;;;;;;;;;;;19.77;45.36;98738.09;2619015;54;19953;-71
2022/08/22 00:05:47;;;;;;;;;;;;;;;19.69;45.76;98745.78;2618863;39;20349;-71
2022/08/22 00:08:20;;;;;;;;;;;;;;;19.60;45.87;98741.91;2618602;47;19946;-70
2022/08/22 00:10:55;;;;;;;;;;;;;;;19.63;45.71;98738.72;2619527;54;19950;-70
2022/08/22 00:13:30;;;;;;;;;;;;;;;19.52;46.35;98740.50;2620760;39;20358;-70
2022/08/22 00:16:04;;;;;;;;;;;;;;;19.52;46.47;98740.50;2620436;54;19957;-70
2022/08/22 00:18:37;;;;;;;;;;;;;;;19.57;46.42;98729.81;2620393;54;20447;-69
2022/08/22 00:21:12;;;;;;;;;;;;;;;19.50;46.42;98727.31;2619701;47;19946;-71
2022/08/22 00:23:45;;;;;;;;;;;;;;;19.58;46.45;98727.94;2620221;54;19938;-70
2022/08/22 00:26:22;;;;;;;;;;;;;;;19.59;46.25;98726.88;2619748;54;20481;-71
2022/08/22 00:28:54;;;;;;;;;;;;;;;19.57;46.30;98729.00;2619951;54;19962;-71
2022/08/22 00:31:27;;;;;;;;;;;;;;;19.63;46.35;98730.69;2620246;54;19939;-70
2022/08/22 00:34:02;;;;;;;;;;;;;;;19.66;46.18;98725.63;2620342;54;20521;-70
2022/08/22 00:36:37;;;;;;;;;;;;;;;19.60;46.13;98720.47;2620390;54;19939;-70
2022/08/22 00:39:12;;;;;;;;;;;;;;;19.46;46.45;98726.19;2620793;54;19953;-69
2022/08/22 00:42:04;;;;;;;;;;;;;;;19.39;46.29;98719.41;2620239;54;20465;-70
2022/08/22 00:44:54;;;;;;;;;;;;;;;19.28;46.94;98724.69;2620739;39;20311;-70
2022/08/22 00:47:47;;;;;;;;;;;;;;;19.12;47.33;98720.19;2620071;54;19938;-70
2022/08/22 00:50:27;;;;;;;;;;;;;;;19.09;47.51;98718.00;2619948;54;20591;-70
2022/08/22 00:53:18;;;;;;;;;;;;;;;18.95;47.56;98717.59;2619812;47;20449;-70
2022/08/22 00:55:55;;;;;;;;;;;;;;;18.93;47.83;98721.56;2620261;54;19946;-70
2022/08/22 00:58:40;;;;;;;;;;;;;;;18.95;48.19;98725.63;2619711;54;19943;-70
2022/08/22 01:01:12;;;;;;;;;;;;;;;19.02;47.46;98717.38;2620726;54;20431;-70
2022/08/22 01:03:51;;;;;;;;;;;;;;;19.03;47.67;98714.47;2620460;54;19946;-71
2022/08/22 01:06:24;;;;;;;;;;;;;;;19.01;47.74;98715.78;2619576;46;19938;-70
2022/08/22 01:09:01;;;;;;;;;;;;;;;18.98;47.72;98721.63;2620326;54;19939;-70
2022/08/22 01:11:45;;;;;;;;;;;;;;;18.97;48.01;98723.50;2620887;39;20406;-70
2022/08/22 01:14:22;;;;;;;;;;;;;;;18.99;48.00;98723.25;2620271;54;19943;-70
2022/08/22 01:17:14;;;;;;;;;;;;;;;19.02;47.94;98717.38;2620275;54;19939;-70
2022/08/22 01:19:59;;;;;;;;;;;;;;;19.10;47.79;98722.31;2620489;54;19947;-70
2022/08/22 01:22:58;;;;;;;;;;;;;;;19.18;47.93;98716.50;2619069;47;20433;-70
2022/08/22 01:25:43;;;;;;;;;;;;;;;19.15;48.10;98709.00;2619020;54;20489;-70
2022/08/22 01:28:21;;;;;;;;;;;;;;;19.16;47.99;98710.59;2618747;54;20474;-70
2022/08/22 01:31:08;;;;;;;;;;;;;;;19.04;47.99;98712.59;2618501;54;20478;-70
2022/08/22 01:33:53;;;;;;;;;;;;;;;18.92;48.29;98706.56;2618342;54;19947;-70
2022/08/22 01:36:44;;;;;;;;;;;;;;;18.68;48.66;98705.94;2618036;50;19950;-70
2022/08/22 01:39:24;;;;;;;;;;;;;;;18.54;48.87;98703.63;2625008;54;19946;-70
2022/08/22 01:42:09;;;;;;;;;;;;;;;18.46;49.16;98705.94;2625047;54;19939;-70
2022/08/22 01:44:47;;;;;;;;;;;;;;;18.44;49.16;98697.31;2624941;54;19950;-70
2022/08/22 01:47:20;;;;;;;;;;;;;;;18.43;49.50;98711.75;2619494;54;19946;-71
2022/08/22 01:49:52;;;;;;;;;;;;;;;18.53;49.83;98703.84;2618206;54;19939;-71
2022/08/22 01:52:35;;;;;;;;;;;;;;;18.47;49.09;98696.84;2618659;54;19946;-69
2022/08/22 01:55:09;;;;;;;;;;;;;;;18.43;49.82;98701.84;2618338;54;19953;-70
2022/08/22 01:57:50;;;;;;;;;;;;;;;18.38;49.80;98703.66;2621842;47;20434;-70
2022/08/22 02:00:22;;;;;;;;;;;;;;;18.34;50.16;98703.34;2620466;54;19947;-70
2022/08/22 02:03:14;;;;;;;;;;;;;;;18.27;50.14;98703.50;2628708;39;20356;-70
2022/08/22 02:05:48;;;;;;;;;;;;;;;18.27;50.21;98697.34;2622138;54;19945;-70
2022/08/22 02:08:30;;;;;;;;;;;;;;;18.29;50.23;98700.59;2623807;54;19939;-70
2022/08/22 02:11:04;;;;;;;;;;;;;;;18.24;50.68;98701.31;2623339;54;19947;-70
2022/08/22 02:13:45;;;;;;;;;;;;;;;18.16;50.73;98706.25;2623185;54;19953;-70
2022/08/22 02:16:20;;;;;;;;;;;;;;;18.03;51.06;98699.38;2622734;54;19945;-69
2022/08/22 02:18:59;;;;;;;;;;;;;;;17.98;50.97;98701.97;2623296;54;19962;-69
2022/08/22 02:21:40;;;;;;;;;;;;;;;17.97;51.11;98711.88;2622889;46;19939;-70
2022/08/22 02:24:22;;;;;;;;;;;;;;;17.93;51.68;98707.25;2620174;54;19946;-70
2022/08/22 02:27:01;;;;;;;;;;;;;;;17.94;51.67;98698.97;2619812;54;19947;-70
2022/08/22 02:29:33;;;;;;;;;;;;;;;17.86;51.32;98701.25;2619560;54;19945;-70
2022/08/22 02:32:07;;;;;;;;;;;;;;;17.67;52.00;98700.59;2619424;54;19945;-71
2022/08/22 02:34:39;;;;;;;;;;;;;;;17.61;52.29;98698.91;2619545;54;19954;-70
2022/08/22 02:37:15;;;;;;;;;;;;;;;17.63;52.35;98700.28;2621478;54;19951;-70
2022/08/22 02:39:51;;;;;;;;;;;;;;;17.55;52.18;98698.84;2624580;54;19945;-70
2022/08/22 02:42:26;;;;;;;;;;;;;;;17.58;52.71;98701.00;2620873;39;20330;-70
2022/08/22 02:44:59;;;;;;;;;;;;;;;17.50;52.43;98698.72;2619902;54;19938;-69
2022/08/22 02:47:32;;;;;;;;;;;;;;;17.44;53.14;98701.56;2619962;54;19953;-70
2022/08/22 02:50:07;;;;;;;;;;;;;;;17.41;52.79;98699.34;2624957;54;19946;-70
2022/08/22 02:52:48;;;;;;;;;;;;;;;17.45;52.69;98706.66;2624436;54;19946;-70
2022/08/22 02:55:22;;;;;;;;;;;;;;;17.47;53.04;98699.22;2624257;54;19949;-70
2022/08/22 02:57:54;;;;;;;;;;;;;;;17.48;53.04;98698.16;2624781;54;19946;-70
2022/08/22 03:00:27;;;;;;;;;;;;;;;17.48;53.13;98695.50;2626397;39;20382;-70
2022/08/22 03:03:04;;;;;;;;;;;;;;;17.46;52.80;98694.09;2624853;54;19947;-71
2022/08/22 03:05:43;;;;;;;;;;;;;;;17.20;53.69;98690.97;2624954;54;19946;-71
2022/08/22 03:08:15;;;;;;;;;;;;;;;17.21;53.54;98695.25;2624215;54;19973;-70
2022/08/22 03:10:50;;;;;;;;;;;;;;;17.15;53.92;98693.53;2624205;54;19950;-70
2022/08/22 03:13:27;;;;;;;;;;;;;;;17.20;54.30;98690.97;2624108;54;19938;-71
2022/08/22 03:16:00;;;;;;;;;;;;;;;17.23;53.66;98692.34;2624627;47;19939;-70
2022/08/22 03:18:33;;;;;;;;;;;;;;;17.10;54.16;98696.09;2627419;39;20413;-70
2022/08/22 03:21:15;;;;;;;;;;;;;;;17.08;53.89;98700.88;2628551;39;20249;-71
2022/08/22 03:23:48;;;;;;;;;;;;;;;17.12;54.15;98699.34;2625256;54;19939;-70
2022/08/22 03:26:24;;;;;;;;;;;;;;;17.00;54.20;98701.25;2619979;54;19954;-70
2022/08/22 03:28:54;;;;;;;;;;;;;;;16.86;54.61;98697.19;2618995;54;19959;-70
2022/08/22 03:31:29;;;;;;;;;;;;;;;16.78;55.06;98691.19;2619505;39;20340;-70
2022/08/22 03:34:13;;;;;;;;;;;;;;;16.70;55.29;98693.41;2619014;54;20007;-71
2022/08/22 03:36:47;;;;;;;;;;;;;;;16.73;55.56;98692.94;2618081;47;19943;-70
2022/08/22 03:39:20;;;;;;;;;;;;;;;16.73;55.48;98691.06;2619054;54;19938;-70
2022/08/22 03:42:04;;;;;;;;;;;;;;;16.69;55.12;98705.09;2619518;39;20365;-70
2022/08/22 03:44:50;;;;;;;;;;;;;;;16.68;55.34;98700.81;2618911;54;19938;-71
2022/08/22 03:47:31;;;;;;;;;;;;;;;16.63;55.58;98698.03;2619078;54;20481;-70
2022/08/22 03:50:16;;;;;;;;;;;;;;;16.62;55.42;98691.91;2618856;54;20442;-70
2022/08/22 03:53:13;;;;;;;;;;;;;;;16.49;55.69;98700.97;2618411;54;19951;-71
2022/08/22 03:56:07;;;;;;;;;;;;;;;16.49;55.76;98692.97;2618235;54;20415;-70
2022/08/22 03:58:48;;;;;;;;;;;;;;;16.55;56.00;98696.53;2619128;54;19946;-70
2022/08/22 04:01:30;;;;;;;;;;;;;;;16.59;55.66;98698.50;2602860;54;20218;-71
2022/08/22 04:18:18;;;;;;;;;;;;;;;16.49;55.81;98700.97;2620993;47;20504;-68
2022/08/22 04:21:02;;;;;;;;;;;;;;;16.53;56.20;98703.94;2622344;54;19946;-67
2022/08/22 04:23:45;;;;;;;;;;;;;;;16.57;56.01;98700.59;2622619;54;19946;-67
2022/08/22 04:26:17;;;;;;;;;;;;;;;16.54;55.94;98706.41;2622627;54;19946;-67
2022/08/22 04:28:48;;;;;;;;;;;;;;;16.48;55.81;98703.84;2622475;39;20353;-67
2022/08/22 04:31:23;;;;;;;;;;;;;;;16.34;56.32;98709.44;2623589;54;19950;-69
2022/08/22 04:33:58;;;;;;;;;;;;;;;16.33;56.12;98715.81;2625074;54;19945;-68
2022/08/22 04:36:32;;;;;;;;;;;;;;;16.29;56.12;98709.31;2624759;54;19947;-68
2022/08/22 04:39:03;;;;;;;;;;;;;;;16.22;56.14;98708.59;2623715;47;20430;-68
2022/08/22 04:41:37;;;;;;;;;;;;;;;16.20;56.78;98710.69;2622392;54;20059;-70
2022/08/22 04:44:09;;;;;;;;;;;;;;;16.15;56.78;98710.56;2620598;54;19942;-68
2022/08/22 04:46:45;;;;;;;;;;;;;;;16.16;57.05;98712.19;2619635;54;19945;-67
2022/08/22 04:49:22;;;;;;;;;;;;;;;16.18;57.13;98709.31;2621033;54;19946;-67
2022/08/22 04:51:55;;;;;;;;;;;;;;;16.16;57.27;98719.38;2623423;54;19939;-69
2022/08/22 04:54:34;;;;;;;;;;;;;;;16.22;57.25;98710.47;2623696;54;19947;-69
2022/08/22 04:57:09;;;;;;;;;;;;;;;16.19;57.13;98708.25;2625134;54;20473;-69
2022/08/22 04:59:40;;;;;;;;;;;;;;;16.13;57.38;98711.84;2626369;39;20380;-69
2022/08/22 05:02:10;;;;;;;;;;;;;;;16.16;57.18;98716.72;2625336;54;19953;-68
2022/08/22 05:04:43;;;;;;;;;;;;;;;16.29;57.00;98722.66;2623896;54;19939;-69
2022/08/22 05:07:14;;;;;;;;;;;;;;;16.39;56.99;98710.59;2624751;39;20345;-69
2022/08/22 05:09:50;;;;;;;;;;;;;;;16.51;56.53;98716.72;2622126;54;19938;-69
2022/08/22 05:12:21;;;;;;;;;;;;;;;16.49;56.63;98706.31;2622417;54;19953;-70
2022/08/22 05:14:53;;;;;;;;;;;;;;;16.42;56.68;98715.47;2623051;54;19953;-69
2022/08/22 05:17:25;;;;;;;;;;;;;;;16.39;56.74;98718.59;2622252;54;19946;-69
2022/08/22 05:20:01;;;;;;;;;;;;;;;16.42;56.86;98710.13;2621941;54;20445;-70
2022/08/22 05:22:32;;;;;;;;;;;;;;;16.53;56.45;98712.78;2622228;54;20418;-67
2022/08/22 05:25:04;;;;;;;;;;;;;;;16.56;56.39;98712.31;2621293;47;19954;-67
2022/08/22 05:27:35;;;;;;;;;;;;;;;16.60;55.99;98718.00;2620939;47;20596;-66
2022/08/22 05:30:07;;;;;;;;;;;;;;;16.60;55.70;98715.31;2622063;54;19938;-68
2022/08/22 05:32:48;;;;;;;;;;;;;;;16.59;55.99;98719.03;2621118;54;19946;-68
2022/08/22 05:35:25;;;;;;;;;;;;;;;16.49;56.47;98724.97;2621329;54;19947;-67
2022/08/22 05:37:56;;;;;;;;;;;;;;;16.67;56.33;98726.69;2623749;54;19946;-65
2022/08/22 05:40:28;;;;;;;;;;;;;;;16.83;55.73;98720.66;2623659;54;20038;-65
2022/08/22 05:42:58;;;;;;;;;;;;;;;16.98;55.59;98720.19;2622419;54;19938;-66
2022/08/22 05:45:28;;;;;;;;;;;;;;;17.07;55.43;98726.78;2621864;54;19950;-66
2022/08/22 05:48:02;;;;;;;;;;;;;;;17.02;55.07;98723.16;2621525;54;19954;-66
2022/08/22 05:50:37;;;;;;;;;;;;;;;17.02;55.26;98721.34;2621836;54;19939;-66
2022/08/22 05:53:09;;;;;;;;;;;;;;;17.17;55.25;98726.16;2621219;47;19954;-67
2022/08/22 05:55:44;;;;;;;;;;;;;;;17.23;54.92;98727.09;2621459;54;19951;-67
2022/08/22 05:58:28;;;;;;;;;;;;;;;17.31;54.54;98732.06;2621152;47;19939;-68
2022/08/22 06:01:02;;;;;;;;;;;;;;;17.28;54.39;98733.31;2622189;54;19951;-67
2022/08/22 06:03:35;;;;;;;;;;;;;;;17.33;54.98;98722.72;2621828;54;19939;-66
2022/08/22 06:06:12;;;;;;;;;;;;;;;17.52;54.47;98725.22;2621517;47;20465;-67
2022/08/22 06:08:44;;;;;;;;;;;;;;;17.63;53.85;98724.34;2622121;54;19938;-67
2022/08/22 06:11:17;;;;;;;;;;;;;;;17.70;54.12;98725.00;2622788;54;19945;-67
2022/08/22 06:13:59;;;;;;;;;;;;;;;17.77;53.87;98733.72;2622837;54;19990;-67
2022/08/22 06:16:36;;;;;;;;;;;;;;;17.92;53.74;98732.34;2622447;54;19954;-66
2022/08/22 06:19:06;;;;;;;;;;;;;;;18.05;53.11;98726.72;2622333;54;20470;-67
2022/08/22 06:21:52;;;;;;;;;;;;;;;18.19;53.13;98735.22;2621642;47;19950;-67
2022/08/22 06:24:24;;;;;;;;;;;;;;;18.21;53.06;98733.94;2621960;54;19947;-66
2022/08/22 06:26:55;;;;;;;;;;;;;;;18.26;52.67;98736.66;2622076;39;20338;-67
2022/08/22 06:29:31;;;;;;;;;;;;;;;18.29;52.53;98741.53;2622000;39;20319;-67
2022/08/22 06:32:03;;;;;;;;;;;;;;;18.37;52.24;98739.50;2620677;54;20430;-66
2022/08/22 06:34:36;;;;;;;;;;;;;;;18.44;52.11;98735.59;2620341;54;19938;-67
2022/08/22 06:37:10;;;;;;;;;;;;;;;18.60;52.15;98733.16;2619915;54;19946;-66
2022/08/22 06:39:41;;;;;;;;;;;;;;;18.76;51.56;98726.97;2619470;47;19947;-65
2022/08/22 06:42:12;;;;;;;;;;;;;;;18.81;51.42;98741.22;2620505;39;20337;-67
2022/08/22 06:44:46;;;;;;;;;;;;;;;18.91;51.13;98735.22;2620517;39;20352;-66
2022/08/22 06:47:17;;;;;;;;;;;;;;;19.04;51.33;98745.56;2621041;47;19950;-68
2022/08/22 06:49:47;;;;;;;;;;;;;;;19.18;51.01;98747.84;2621474;54;19939;-66
2022/08/22 06:52:23;;;;;;;;;;;;;;;19.35;50.51;98745.09;2621735;54;19942;-66
2022/08/22 06:54:56;;;;;;;;;;;;;;;19.30;50.44;98749.34;2620122;54;19947;-67
2022/08/22 06:57:29;;;;;;;;;;;;;;;19.38;50.43;98749.97;2620415;54;19950;-67
2022/08/22 06:59:59;;;;;;;;;;;;;;;19.50;49.96;98756.81;2620316;54;19946;-66
2022/08/22 07:02:31;;;;;;;;;;;;;;;19.58;50.03;98746.69;2620194;47;20406;-67
2022/08/22 07:05:01;;;;;;;;;;;;;;;19.61;49.16;98747.03;2621131;39;20415;-67
2022/08/22 07:07:33;;;;;;;;;;;;;;;19.66;49.66;98752.44;2622053;39;20340;-67
2022/08/22 07:10:02;;;;;;;;;;;;;;;19.81;49.63;98748.31;2620688;54;19969;-67
2022/08/22 07:12:34;;;;;;;;;;;;;;;19.93;49.61;98751.66;2620543;54;19938;-67
2022/08/22 07:15:12;;;;;;;;;;;;;;;20.02;49.17;98747.44;2620593;39;20326;-67
2022/08/22 07:17:49;;;;;;;;;;;;;;;20.16;49.17;98751.28;2620234;54;19939;-67
2022/08/22 07:20:23;;;;;;;;;;;;;;;20.23;49.42;98748.41;2620653;39;20354;-66
2022/08/22 07:22:57;;;;;;;;;;;;;;;20.34;49.17;98749.31;2620563;47;19950;-67
2022/08/22 07:25:27;;;;;;;;;;;;;;;20.42;49.05;98752.31;2621382;54;20469;-66
2022/08/22 07:28:04;;;;;;;;;;;;;;;20.50;48.48;98749.19;2620097;39;20381;-66
2022/08/22 07:30:46;;;;;;;;;;;;;;;20.58;48.67;98757.81;2619908;47;19954;-69
2022/08/22 07:33:21;;;;;;;;;;;;;;;20.64;48.33;98746.84;2621141;54;19947;-67
2022/08/22 07:36:00;;;;;;;;;;;;;;;20.78;48.06;98756.06;2619903;47;19947;-68
2022/08/22 12:50:55;;;;;;;4.93;2.63;;;;;;;23.15;41.38;98243.84;5008209;28;151234;-61
2022/08/22 12:53:26;;;;;;;3.22;2.67;;;;;;;23.08;41.38;98238.78;5010708;28;20041;-64
2022/08/22 12:56:01;;;;;;;3.65;2.33;;;;;;;23.03;41.50;98238.84;5016817;28;58601;-63
2022/08/22 13:03:22;;;;;;;2.67;2.40;;;;;;;23.14;40.97;98234.13;5090958;27;59145;-62
2022/08/22 13:05:51;;;;;;;3.55;2.58;;;;;;;23.26;40.86;98229.09;5049833;28;20037;-57
2022/08/22 13:08:37;;;;;;;2.45;2.17;;;;;;;23.28;40.68;98228.84;5049466;28;20415;-63
2022/08/22 13:11:09;;;;;;;3.90;2.60;;;;;;;23.34;40.57;98225.78;5050299;28;20508;-64
2022/08/22 13:13:53;;;;;;;2.92;2.40;;;;;;;23.36;40.08;98225.50;5063967;28;20072;-63
2022/08/22 13:16:25;;;;;;;5.47;2.70;;;;;;;23.26;40.20;98228.31;5066815;28;20140;-64
2022/08/22 13:18:53;;;;;;;2.90;2.15;;;;;;;23.19;40.49;98209.81;5050341;28;20056;-63
2022/08/22 13:21:30;;;;;;;4.82;2.30;;;;;;;23.09;40.43;98208.03;5047961;28;20050;-62
2022/08/22 13:24:10;;;;;;;3.10;2.60;;;;;;;22.97;41.40;98213.81;5045491;28;20072;-63
2022/08/22 13:26:47;;;;;;;2.63;2.22;;;;;;;22.82;41.82;98216.69;5062039;28;20096;-63
2022/08/22 13:29:30;;;;;;;2.67;2.33;;;;;;;22.70;42.28;98216.28;5062872;28;20065;-63
2022/08/22 13:32:20;;;;;;;3.00;2.33;;;;;;;22.60;42.70;98217.16;5047553;28;20037;-64
2022/08/22 13:34:52;;;;;;;2.47;2.00;;;;;;;22.59;42.77;98220.16;5062378;28;20041;-65
2022/08/22 13:37:29;;;;;;;4.40;2.45;;;;;;;22.56;43.05;98210.75;5047409;28;20467;-65
2022/08/22 13:40:03;;;;;;;2.88;2.13;;;;;;;22.54;42.96;98212.94;5046479;28;20087;-64
2022/08/22 13:42:35;;;;;;;2.65;2.42;;;;;;;22.51;42.78;98213.50;5049609;28;20041;-64
2022/08/22 13:45:14;;;;;;;2.33;2.03;;;;;;;22.51;42.98;98216.19;5048134;28;20045;-63
2022/08/22 13:47:53;;;;;;;3.40;2.80;;;;;;;22.47;43.17;98212.47;5049420;28;20052;-64
2022/08/22 13:50:24;;;;;;;2.60;2.40;;;;;;;22.46;43.27;98219.75;5049169;28;20075;-63
2022/08/22 13:53:09;;;;;;;3.20;2.50;;;;;;;22.43;43.71;98212.22;5047846;28;20053;-63
2022/08/22 13:55:50;;;;;;;4.88;2.75;;;;;;;22.43;43.84;98214.13;5047976;28;20045;-63
2022/08/22 13:58:42;;;;;;;2.72;2.25;;;;;;;22.43;43.59;98209.53;5049292;28;20064;-65
2022/08/22 14:01:15;;;;;;;2.65;2.30;;;;;;;22.45;43.57;98209.22;5047467;28;20041;-64
2022/08/22 14:03:56;;;;;;;3.53;2.30;;;;;;;22.42;43.84;98210.63;5063852;28;20139;-64
2022/08/22 14:06:48;;;;;;;3.83;2.10;;;;;;;22.42;44.05;98205.22;5034351;28;20046;-64
2022/08/22 14:09:44;;;;;;;2.72;2.30;;;;;;;22.40;43.81;98207.41;5044608;28;20439;-63
2022/08/22 14:12:45;;;;;;;2.63;2.15;;;;;;;22.44;43.88;98203.03;5028433;28;20522;-64
2022/08/22 14:15:42;;;;;;;3.33;2.28;;;;;;;22.48;44.04;98204.09;5014781;28;20080;-65
2022/08/22 14:18:24;;;;;;;2.53;2.20;;;;;;;22.50;43.71;98201.13;5030237;28;20136;-64
2022/08/22 14:21:29;;;;;;;5.22;2.40;;;;;;;22.54;43.95;98193.28;5015759;28;20049;-64
2022/08/22 14:24:14;;;;;;;4.28;2.60;;;;;;;22.54;43.95;98193.28;5015957;28;20065;-65
2022/08/22 14:27:05;;;;;;;2.65;2.30;;;;;;;22.49;44.28;98196.81;5030484;28;20141;-64
2022/08/22 14:29:45;;;;;;;3.05;2.40;;;;;;;22.46;44.22;98190.13;5031066;28;20046;-64
2022/08/22 14:32:41;;;;;;;3.72;2.28;;;;;;;22.44;44.54;98191.47;5015755;28;20034;-64
2022/08/22 14:35:21;;;;;;;4.53;2.45;;;;;;;22.46;44.21;98186.63;5030916;28;20046;-63
2022/08/22 14:38:14;;;;;;;3.03;2.00;;;;;;;22.80;43.83;98175.72;5028866;28;20060;-62
2022/08/22 14:40:44;;;;;;;2.35;2.15;;;;;;;22.95;43.30;98175.59;5039871;28;20049;-63
2022/08/22 14:43:30;;;;;;;2.72;2.17;;;;;;;22.93;43.38;98180.44;5035640;28;20099;-63
2022/08/22 14:46:11;;;;;;;3.53;2.55;;;;;;;22.92;43.47;98173.47;5023142;28;20054;-60
2022/08/22 14:49:07;;;;;;;2.83;2.03;;;;;;;22.83;44.11;98177.88;5017925;28;20046;-63
2022/08/22 14:51:45;;;;;;;3.10;2.80;;;;;;;22.99;43.80;98171.22;5029690;28;20588;-65
2022/08/22 14:54:20;;;;;;;2.67;2.47;;;;;;;22.87;44.32;98165.41;5028797;28;20041;-70
2022/08/22 14:56:50;;;;;;;3.03;2.45;;;;;;;23.05;43.44;98177.34;5034461;28;20099;-62
2022/08/22 14:59:45;;;;;;;4.50;2.20;;;;;;;23.09;42.58;98167.59;5035811;28;20385;-67
2022/08/22 15:04:49;;;;;;;4.45;2.78;;;;;;;23.65;40.90;98172.22;5069294;28;20751;-70
2022/08/22 15:07:25;;;;;;;3.78;2.85;;;;;;;23.76;40.69;98164.78;5056738;22;79234;-67
